METAR Data
IDs: Format: Raw Decoded Include TAF

Data at: 1350 UTC 26 Feb 2021

EDDG 261320Z 33008KT 270V360 9999 SCT041 11/02 Q1033 NOSIG